Time;durP1;ratioP1;P1;durP2;ratioP2;P2;SDS_P1;SDS_P2;PMS_P1;PMS_P2;Temp;Humidity;BMP_temperature;BMP_pressure;BME280_temperature;BME280_humidity;BME280_pressure;Samples;Min_cycle;Max_cycle;Signal;HPM_P1;HPM_P2
2021/07/28 00:02:13;;;;;;;9.80;9.00;;;20.60;99.90;;;;;;4993357;28;20258;-64
2021/07/28 00:04:39;;;;;;;9.83;8.90;;;20.60;99.90;;;;;;4993099;28;20645;-63
2021/07/28 00:07:06;;;;;;;10.20;8.67;;;20.50;99.90;;;;;;4993132;28;20270;-64
2021/07/28 00:09:31;;;;;;;9.70;8.87;;;20.50;99.90;;;;;;4992888;28;20593;-65
2021/07/28 00:11:57;;;;;;;10.37;9.30;;;20.50;99.90;;;;;;4993154;28;20456;-64
2021/07/28 00:14:23;;;;;;;9.83;8.70;;;20.50;99.90;;;;;;4992974;28;20579;-64
2021/07/28 00:16:48;;;;;;;10.47;9.57;;;20.50;99.90;;;;;;4993060;28;20242;-64
2021/07/28 00:19:27;;;;;;;11.20;8.60;;;20.40;99.90;;;;;;4992573;28;20174;-64
2021/07/28 00:24:37;;;;;;;8.63;7.93;;;20.50;99.90;;;;;;4992979;28;20482;-64
2021/07/28 00:27:04;;;;;;;9.90;9.00;;;20.50;99.90;;;;;;4992808;28;20531;-64
2021/07/28 00:29:30;;;;;;;8.97;8.27;;;20.50;99.90;;;;;;4992745;28;20711;-64
2021/07/28 00:31:56;;;;;;;10.03;8.10;;;20.50;99.90;;;;;;4992483;28;20466;-64
2021/07/28 00:34:22;;;;;;;9.23;8.43;;;20.40;99.90;;;;;;4992673;28;20967;-64
2021/07/28 00:36:48;;;;;;;9.93;9.13;;;20.50;99.90;;;;;;4993164;28;20183;-64
2021/07/28 00:39:14;;;;;;;9.70;8.80;;;20.50;99.90;;;;;;4992519;28;20171;-64
2021/07/28 00:41:43;;;;;;;8.10;7.40;;;20.50;99.90;;;;;;4992716;28;20911;-64
2021/07/28 00:44:09;;;;;;;10.00;9.00;;;20.40;99.90;;;;;;4992520;28;20266;-64
2021/07/28 00:46:34;;;;;;;9.17;8.40;;;20.40;99.90;;;;;;4992616;28;20873;-64
2021/07/28 00:49:00;;;;;;;8.33;7.73;;;20.50;99.90;;;;;;4974840;28;20434;-64
2021/07/28 00:51:26;;;;;;;9.07;8.37;;;20.50;99.90;;;;;;4992674;28;20254;-64
2021/07/28 00:53:51;;;;;;;8.50;7.80;;;20.50;99.90;;;;;;4992555;28;20584;-64
2021/07/28 00:56:21;;;;;;;9.33;8.50;;;20.40;99.90;;;;;;4992448;28;20192;-65
2021/07/28 00:58:47;;;;;;;10.40;9.40;;;20.30;99.90;;;;;;4992575;28;20168;-64
2021/07/28 01:01:13;;;;;;;9.57;8.47;;;20.30;99.90;;;;;;4974404;28;20416;-63
2021/07/28 01:03:39;;;;;;;10.40;9.60;;;20.30;99.90;;;;;;4973106;28;20231;-64
2021/07/28 01:06:07;;;;;;;10.33;9.47;;;20.30;99.90;;;;;;4955529;28;20542;-64
2021/07/28 01:08:33;;;;;;;10.47;8.37;;;20.30;99.90;;;;;;4972758;28;20443;-64
2021/07/28 01:11:01;;;;;;;9.87;9.07;;;20.30;99.90;;;;;;4973067;28;20426;-64
2021/07/28 01:13:31;;;;;;;10.40;9.60;;;20.30;99.90;;;;;;4972698;28;20474;-64
2021/07/28 01:16:21;;;;;;;10.57;9.60;;;20.30;99.90;;;;;;4972926;28;20471;-64
2021/07/28 01:18:47;;;;;;;9.30;8.50;;;20.20;99.90;;;;;;4972623;28;20442;-64
2021/07/28 01:21:13;;;;;;;11.33;10.23;;;20.10;99.90;;;;;;4972985;28;20962;-64
2021/07/28 01:23:41;;;;;;;10.93;9.00;;;20.00;99.90;;;;;;4972844;28;20431;-64
2021/07/28 01:26:07;;;;;;;9.70;8.80;;;20.00;99.90;;;;;;4972835;28;21004;-64
2021/07/28 01:28:35;;;;;;;11.20;10.20;;;19.90;99.90;;;;;;4972550;28;20419;-64
2021/07/28 01:31:05;;;;;;;9.37;8.60;;;20.00;99.90;;;;;;4973002;28;20203;-64
2021/07/28 01:33:33;;;;;;;10.30;9.50;;;20.00;99.90;;;;;;4972787;28;20543;-64
2021/07/28 01:36:00;;;;;;;12.33;11.23;;;19.90;99.90;;;;;;4972843;28;20436;-64
2021/07/28 01:38:26;;;;;;;9.60;8.80;;;19.90;99.90;;;;;;4972296;28;20495;-64
2021/07/28 01:40:54;;;;;;;11.00;10.10;;;19.80;99.90;;;;;;4972805;28;20794;-64
2021/07/28 01:43:21;;;;;;;10.93;10.03;;;19.80;99.90;;;;;;4974668;28;20445;-64
2021/07/28 01:45:46;;;;;;;12.97;11.80;;;19.80;99.90;;;;;;4976363;28;20447;-64
2021/07/28 01:48:12;;;;;;;12.67;11.60;;;19.70;99.90;;;;;;4976277;28;20423;-63
2021/07/28 01:50:38;;;;;;;11.83;10.70;;;19.80;99.90;;;;;;4976088;28;20255;-64
2021/07/28 01:53:04;;;;;;;12.30;10.90;;;19.80;99.90;;;;;;4976167;28;20510;-64
2021/07/28 01:55:31;;;;;;;10.83;9.97;;;19.80;99.90;;;;;;4975989;28;20735;-64
2021/07/28 01:57:58;;;;;;;11.90;10.90;;;19.80;99.90;;;;;;4976145;28;20426;-64
2021/07/28 02:00:24;;;;;;;12.40;11.30;;;19.90;99.90;;;;;;4987418;28;20450;-64
2021/07/28 02:02:50;;;;;;;11.40;10.50;;;19.90;99.90;;;;;;4995619;28;21061;-64
2021/07/28 02:05:15;;;;;;;12.40;11.40;;;19.80;99.90;;;;;;4995132;28;20481;-64
2021/07/28 02:07:41;;;;;;;11.30;10.20;;;19.60;99.90;;;;;;4995457;28;20537;-64
2021/07/28 02:10:07;;;;;;;9.60;8.80;;;19.40;99.90;;;;;;4995137;28;20585;-64
2021/07/28 02:12:32;;;;;;;9.67;8.97;;;19.30;99.90;;;;;;4995330;28;20174;-64
2021/07/28 02:14:58;;;;;;;9.87;9.00;;;19.40;99.90;;;;;;4995250;28;20462;-64
2021/07/28 02:17:23;;;;;;;9.33;8.40;;;19.30;99.90;;;;;;4995237;28;20223;-64
2021/07/28 02:19:49;;;;;;;8.57;7.63;;;19.40;99.90;;;;;;4994869;28;20800;-64
2021/07/28 02:22:14;;;;;;;8.33;7.60;;;19.40;99.90;;;;;;4995150;28;20175;-64
2021/07/28 02:24:41;;;;;;;8.53;7.83;;;19.50;99.90;;;;;;4995143;28;20180;-64
2021/07/28 02:27:07;;;;;;;7.77;7.17;;;19.60;99.90;;;;;;4994943;28;20281;-64
2021/07/28 02:29:34;;;;;;;8.57;7.83;;;19.60;99.90;;;;;;4995043;28;20445;-64
2021/07/28 02:32:01;;;;;;;8.63;7.93;;;19.60;99.90;;;;;;4995025;28;20446;-64
2021/07/28 02:34:27;;;;;;;8.03;7.43;;;19.60;99.90;;;;;;4994736;28;20461;-64
2021/07/28 02:36:52;;;;;;;8.67;8.00;;;19.40;99.90;;;;;;4994808;28;20484;-64
2021/07/28 02:39:18;;;;;;;7.90;7.27;;;19.40;99.90;;;;;;4994597;28;20792;-64
2021/07/28 02:41:43;;;;;;;8.30;7.60;;;19.40;99.90;;;;;;4994667;28;20724;-64
2021/07/28 02:44:09;;;;;;;8.40;7.70;;;19.40;99.90;;;;;;4994814;28;20180;-64
2021/07/28 02:46:34;;;;;;;8.13;7.60;;;19.20;99.90;;;;;;4994784;28;20191;-64
2021/07/28 02:49:00;;;;;;;7.93;7.33;;;19.20;99.90;;;;;;4994398;28;20271;-64
2021/07/28 02:51:26;;;;;;;7.77;6.90;;;19.10;99.90;;;;;;4994559;28;20180;-65
2021/07/28 02:53:51;;;;;;;7.40;6.70;;;19.00;99.90;;;;;;4994320;28;20187;-65
2021/07/28 02:56:16;;;;;;;8.47;7.70;;;19.10;99.90;;;;;;4994424;28;20242;-64
2021/07/28 02:58:42;;;;;;;10.70;7.73;;;19.10;99.90;;;;;;4994173;28;20622;-64
2021/07/28 03:01:07;;;;;;;8.20;7.50;;;19.10;99.90;;;;;;4976861;28;20181;-63
2021/07/28 03:03:33;;;;;;;8.63;7.83;;;19.10;99.90;;;;;;4975506;28;20180;-64
2021/07/28 03:05:58;;;;;;;8.60;7.80;;;19.00;99.90;;;;;;4974761;28;20214;-64
2021/07/28 03:08:24;;;;;;;9.77;8.73;;;19.00;99.90;;;;;;4974719;28;20172;-64
2021/07/28 03:10:50;;;;;;;7.07;6.47;;;19.00;99.90;;;;;;4974857;28;20546;-63
2021/07/28 03:13:15;;;;;;;8.37;7.70;;;18.90;99.90;;;;;;4974724;28;20180;-63
2021/07/28 03:15:40;;;;;;;9.77;9.07;;;18.90;99.90;;;;;;4974647;28;20602;-64
2021/07/28 03:18:06;;;;;;;9.50;8.80;;;18.80;99.90;;;;;;4975178;28;20259;-64
2021/07/28 03:20:31;;;;;;;9.27;8.47;;;18.80;99.90;;;;;;4974879;28;20178;-64
2021/07/28 03:22:57;;;;;;;7.73;7.13;;;18.90;99.90;;;;;;4974718;28;20203;-64
2021/07/28 03:25:23;;;;;;;8.60;7.90;;;19.00;99.90;;;;;;4974472;28;20613;-64
2021/07/28 03:27:49;;;;;;;8.53;7.83;;;19.00;99.90;;;;;;4974585;28;20204;-64
2021/07/28 03:30:15;;;;;;;9.10;8.40;;;19.00;99.90;;;;;;4974195;28;20231;-63
2021/07/28 03:32:40;;;;;;;9.17;8.37;;;18.90;99.90;;;;;;4974421;28;20428;-64
2021/07/28 03:35:06;;;;;;;9.23;8.00;;;18.80;99.90;;;;;;4974218;28;20629;-64
2021/07/28 03:37:32;;;;;;;9.57;8.70;;;18.90;99.90;;;;;;4974246;28;20197;-63
2021/07/28 03:40:01;;;;;;;8.37;7.47;;;18.90;99.90;;;;;;4973989;28;20423;-64
2021/07/28 03:42:31;;;;;;;9.53;8.63;;;18.80;99.90;;;;;;4974283;28;20212;-63
2021/07/28 03:44:58;;;;;;;8.63;7.83;;;18.60;99.90;;;;;;4974290;28;20429;-64
2021/07/28 03:47:24;;;;;;;9.80;8.90;;;18.60;99.90;;;;;;4974044;28;20432;-64
2021/07/28 03:49:49;;;;;;;10.10;9.20;;;18.70;99.90;;;;;;4973716;28;20949;-64
2021/07/28 03:52:15;;;;;;;9.10;8.40;;;18.70;99.90;;;;;;4974070;28;20419;-63
2021/07/28 03:54:41;;;;;;;9.60;8.70;;;18.70;99.90;;;;;;4973979;28;20204;-64
2021/07/28 03:57:06;;;;;;;11.80;9.23;;;18.60;99.90;;;;;;4974196;28;20531;-64
2021/07/28 03:59:32;;;;;;;13.80;12.50;;;18.50;99.90;;;;;;4978315;28;20540;-64
2021/07/28 04:01:57;;;;;;;9.93;9.17;;;18.70;99.90;;;;;;4993294;28;20598;-64
2021/07/28 04:04:23;;;;;;;8.97;8.03;;;18.70;99.90;;;;;;4993205;28;20180;-64
2021/07/28 04:06:48;;;;;;;10.17;9.10;;;18.80;99.90;;;;;;5026434;23;20769;-62
2021/07/28 04:09:14;;;;;;;12.37;11.27;;;18.80;99.90;;;;;;5011964;28;20175;-62
2021/07/28 04:11:40;;;;;;;8.37;7.67;;;18.80;99.90;;;;;;5012669;28;20173;-62
2021/07/28 04:14:05;;;;;;;8.70;7.40;;;18.80;99.90;;;;;;5012547;28;20249;-61
2021/07/28 04:16:31;;;;;;;11.30;10.13;;;18.70;99.90;;;;;;5004222;28;20273;-62
2021/07/28 04:18:57;;;;;;;9.80;9.00;;;18.70;99.90;;;;;;4992737;28;20164;-62
2021/07/28 04:21:22;;;;;;;10.40;8.97;;;18.60;99.90;;;;;;4993000;28;20449;-62
2021/07/28 04:23:48;;;;;;;8.77;8.03;;;18.60;99.90;;;;;;4992952;28;20553;-63
2021/07/28 04:26:13;;;;;;;11.60;10.50;;;18.70;99.90;;;;;;4992918;28;20218;-62
2021/07/28 04:28:39;;;;;;;12.23;11.13;;;18.70;99.90;;;;;;5004567;28;20182;-61
2021/07/28 04:31:04;;;;;;;9.27;8.50;;;18.90;99.90;;;;;;5012428;28;20174;-63
2021/07/28 04:33:30;;;;;;;9.50;8.57;;;18.90;99.90;;;;;;5012370;28;20167;-63
2021/07/28 04:35:55;;;;;;;10.27;9.37;;;18.90;99.90;;;;;;5012430;28;20194;-62
2021/07/28 04:38:21;;;;;;;9.30;8.60;;;18.90;99.90;;;;;;5012316;28;20651;-62
2021/07/28 04:40:49;;;;;;;11.23;8.97;;;19.00;99.90;;;;;;5012390;28;20175;-62
2021/07/28 04:43:15;;;;;;;9.20;8.40;;;19.00;99.90;;;;;;5012158;28;20577;-62
2021/07/28 04:45:40;;;;;;;10.90;9.80;;;19.00;99.90;;;;;;5012220;28;20417;-62
2021/07/28 04:48:06;;;;;;;10.83;8.10;;;19.10;99.90;;;;;;5012313;28;20221;-63
2021/07/28 04:50:32;;;;;;;9.70;8.83;;;19.10;99.90;;;;;;5012069;28;20174;-62
2021/07/28 04:52:58;;;;;;;8.83;8.00;;;19.20;99.90;;;;;;5012164;28;20217;-62
2021/07/28 04:55:23;;;;;;;8.17;7.37;;;19.20;99.90;;;;;;5012122;28;20458;-62
2021/07/28 04:57:49;;;;;;;7.70;7.00;;;19.30;99.90;;;;;;5011931;28;20190;-62
2021/07/28 05:00:16;;;;;;;9.27;8.37;;;19.40;99.90;;;;;;5001413;28;20179;-63
2021/07/28 05:02:42;;;;;;;8.33;7.63;;;19.50;99.90;;;;;;4993301;28;20176;-62
2021/07/28 05:05:08;;;;;;;9.50;8.70;;;19.50;99.90;;;;;;5012117;28;20421;-62
2021/07/28 05:07:33;;;;;;;11.03;10.00;;;19.40;99.90;;;;;;5011942;28;20211;-62
2021/07/28 05:09:59;;;;;;;9.00;8.20;;;19.50;99.90;;;;;;5012159;28;20968;-62
2021/07/28 05:12:25;;;;;;;10.97;9.80;;;19.50;99.90;;;;;;5012072;28;20171;-62
2021/07/28 05:14:50;;;;;;;7.87;7.17;;;19.50;99.90;;;;;;5011942;28;20202;-62
2021/07/28 05:17:18;;;;;;;10.33;9.03;;;19.60;99.90;;;;;;5013728;28;20656;-62
2021/07/28 05:19:44;;;;;;;9.87;8.97;;;19.60;99.90;;;;;;5006472;28;20570;-62
2021/07/28 05:22:09;;;;;;;9.97;9.00;;;19.50;99.90;;;;;;5004798;28;20433;-61
2021/07/28 05:24:35;;;;;;;10.90;8.93;;;19.60;99.90;;;;;;5006615;28;20198;-62
2021/07/28 05:27:00;;;;;;;13.20;9.20;;;19.60;99.90;;;;;;5005223;28;20195;-62
2021/07/28 05:29:26;;;;;;;8.53;7.60;;;19.50;99.90;;;;;;4992363;28;20202;-61
2021/07/28 05:31:51;;;;;;;9.10;7.20;;;19.50;99.90;;;;;;4968726;28;20197;-61
2021/07/28 05:34:17;;;;;;;8.73;7.93;;;19.60;99.90;;;;;;4980209;28;20298;-62
2021/07/28 05:36:42;;;;;;;9.40;8.50;;;19.60;99.90;;;;;;4995592;28;20191;-61
2021/07/28 05:39:08;;;;;;;9.53;8.50;;;19.60;99.90;;;;;;4995691;28;20219;-61
2021/07/28 05:41:33;;;;;;;10.23;7.83;;;19.70;99.90;;;;;;4996795;28;20174;-61
2021/07/28 05:43:59;;;;;;;8.13;7.43;;;19.80;99.90;;;;;;4998191;28;20593;-61
2021/07/28 05:46:24;;;;;;;8.73;7.90;;;19.80;99.90;;;;;;5004570;28;20742;-62
2021/07/28 05:48:50;;;;;;;10.50;7.90;;;19.80;99.90;;;;;;4980850;28;20600;-62
2021/07/28 05:51:15;;;;;;;8.33;7.30;;;19.80;99.90;;;;;;5001382;28;20175;-61
2021/07/28 05:53:41;;;;;;;9.10;8.20;;;19.80;99.90;;;;;;5001480;28;20200;-62
2021/07/28 05:56:06;;;;;;;8.40;7.70;;;19.80;99.90;;;;;;5004119;28;20687;-62
2021/07/28 05:58:32;;;;;;;9.73;7.90;;;19.90;99.90;;;;;;5001590;28;20207;-62
2021/07/28 06:00:57;;;;;;;9.80;8.43;;;19.90;99.90;;;;;;5008003;28;20262;-61
2021/07/28 06:03:23;;;;;;;10.63;9.63;;;19.90;99.90;;;;;;4994213;28;20191;-61
2021/07/28 06:05:48;;;;;;;8.80;8.00;;;20.00;99.90;;;;;;4996281;28;20200;-62
2021/07/28 06:08:14;;;;;;;9.70;8.70;;;20.10;99.90;;;;;;4991998;28;20179;-62
2021/07/28 06:10:39;;;;;;;10.07;9.17;;;20.10;99.90;;;;;;4992083;28;20211;-62
2021/07/28 06:13:05;;;;;;;9.67;8.77;;;20.00;99.90;;;;;;4997891;28;20182;-62
2021/07/28 06:15:30;;;;;;;8.93;7.40;;;19.90;99.90;;;;;;5002143;28;20269;-62
2021/07/28 06:17:56;;;;;;;8.27;7.50;;;19.80;99.90;;;;;;5003904;28;20183;-62
2021/07/28 06:20:22;;;;;;;9.00;8.17;;;19.50;99.90;;;;;;5003763;28;20183;-62
2021/07/28 06:22:47;;;;;;;9.17;8.27;;;19.40;99.90;;;;;;4991814;28;20557;-64
2021/07/28 06:25:13;;;;;;;8.70;8.10;;;19.20;99.90;;;;;;4990884;28;20225;-63
2021/07/28 06:27:39;;;;;;;8.23;7.57;;;19.10;99.90;;;;;;4991064;28;20276;-68
2021/07/28 06:30:05;;;;;;;9.60;8.70;;;19.10;99.90;;;;;;4990996;28;20322;-68
2021/07/28 06:32:30;;;;;;;11.77;9.13;;;18.80;99.90;;;;;;4992069;28;20210;-68
2021/07/28 06:34:56;;;;;;;9.27;8.40;;;18.60;99.90;;;;;;4990472;28;21248;-68
2021/07/28 06:37:21;;;;;;;12.20;11.07;;;18.50;99.90;;;;;;4991163;28;20208;-69
2021/07/28 06:39:47;;;;;;;9.90;8.93;;;18.50;99.90;;;;;;4990706;28;20171;-68
2021/07/28 06:42:14;;;;;;;9.00;8.10;;;18.60;99.90;;;;;;4993132;28;20651;-68
2021/07/28 06:44:41;;;;;;;9.90;9.00;;;18.50;99.90;;;;;;4990318;28;20660;-67
2021/07/28 06:47:07;;;;;;;10.40;9.50;;;18.40;99.90;;;;;;4991062;28;20453;-67
2021/07/28 06:49:32;;;;;;;10.10;9.10;;;18.30;99.90;;;;;;4991019;28;20436;-68
2021/07/28 06:51:58;;;;;;;10.27;9.27;;;18.20;99.90;;;;;;4991287;28;20184;-68
2021/07/28 06:54:23;;;;;;;9.90;9.07;;;18.10;99.90;;;;;;4990309;28;20207;-67
2021/07/28 06:56:49;;;;;;;10.33;8.90;;;18.20;99.90;;;;;;4990673;28;20191;-66
2021/07/28 06:59:14;;;;;;;10.77;9.70;;;18.30;99.90;;;;;;5007162;28;20308;-67
2021/07/28 07:01:40;;;;;;;11.83;10.67;;;18.40;99.90;;;;;;4987601;28;20187;-68
2021/07/28 07:04:05;;;;;;;13.30;10.57;;;18.30;99.90;;;;;;4990953;28;20703;-68
2021/07/28 07:06:31;;;;;;;10.47;9.53;;;18.30;99.90;;;;;;4990734;28;20227;-68
2021/07/28 07:08:56;;;;;;;10.57;9.33;;;18.30;99.90;;;;;;4990858;28;20179;-69
2021/07/28 07:11:22;;;;;;;11.20;10.10;;;18.20;99.90;;;;;;4991690;28;20219;-66
2021/07/28 07:13:47;;;;;;;12.40;11.30;;;18.20;99.90;;;;;;4990021;28;20199;-66
2021/07/28 07:16:13;;;;;;;11.33;10.13;;;18.30;99.90;;;;;;4990997;28;20576;-66
2021/07/28 07:18:38;;;;;;;10.80;9.27;;;18.20;99.90;;;;;;4990457;28;20199;-66
2021/07/28 07:21:04;;;;;;;12.43;9.73;;;18.20;99.90;;;;;;4990622;28;20234;-66
2021/07/28 07:23:29;;;;;;;18.67;14.50;;;18.10;99.90;;;;;;4990704;28;20167;-66
2021/07/28 07:25:58;;;;;;;11.73;10.63;;;18.00;99.90;;;;;;4990879;28;20274;-66
2021/07/28 07:28:27;;;;;;;9.67;8.70;;;18.00;99.90;;;;;;4970915;28;20205;-66
2021/07/28 07:30:53;;;;;;;13.57;10.30;;;18.10;99.90;;;;;;4981458;28;20528;-66
2021/07/28 07:36:03;;;;;;;12.40;9.00;;;18.30;99.90;;;;;;5007415;28;20205;-66
2021/07/28 07:38:28;;;;;;;9.07;8.37;;;18.30;99.90;;;;;;4989431;28;20908;-66
2021/07/28 07:40:54;;;;;;;11.50;9.37;;;18.50;99.90;;;;;;4988805;28;20192;-66
2021/07/28 07:43:19;;;;;;;11.30;10.20;;;18.60;99.90;;;;;;4993874;28;20253;-66
2021/07/28 07:45:45;;;;;;;9.90;9.00;;;18.70;99.90;;;;;;4992154;28;20230;-66
2021/07/28 07:48:10;;;;;;;11.07;9.97;;;18.80;99.90;;;;;;4990706;28;20192;-66
2021/07/28 07:50:36;;;;;;;8.53;7.80;;;18.70;99.90;;;;;;4989059;28;20294;-66
2021/07/28 07:53:03;;;;;;;10.47;9.43;;;18.50;99.90;;;;;;4990174;28;20649;-65
2021/07/28 07:55:29;;;;;;;10.67;9.67;;;18.40;99.90;;;;;;4990701;28;20222;-65
2021/07/28 07:57:54;;;;;;;9.60;8.73;;;18.40;99.90;;;;;;4990557;28;20426;-66
2021/07/28 08:00:20;;;;;;;11.70;10.57;;;18.30;99.90;;;;;;4989915;28;20441;-66
2021/07/28 08:02:45;;;;;;;9.93;9.03;;;18.40;99.90;;;;;;4990122;28;20635;-66
2021/07/28 08:05:11;;;;;;;11.97;10.63;;;18.30;99.90;;;;;;4989947;28;20723;-65
2021/07/28 08:07:37;;;;;;;10.43;9.27;;;18.30;99.90;;;;;;4990171;28;20290;-66
2021/07/28 08:10:03;;;;;;;10.93;9.90;;;18.40;99.90;;;;;;4989404;28;20688;-66
2021/07/28 08:12:28;;;;;;;12.30;9.70;;;18.30;99.90;;;;;;4989962;28;20190;-66
2021/07/28 08:14:53;;;;;;;10.50;9.60;;;18.30;99.90;;;;;;4989626;28;20922;-66
2021/07/28 08:17:19;;;;;;;11.97;9.40;;;18.30;99.90;;;;;;4989624;28;20214;-65
2021/07/28 08:19:44;;;;;;;10.00;8.97;;;18.30;99.90;;;;;;4989292;28;20184;-66
2021/07/28 08:22:10;;;;;;;10.07;9.17;;;18.20;99.90;;;;;;4989780;28;20637;-66
2021/07/28 08:24:36;;;;;;;9.47;8.63;;;18.20;99.90;;;;;;4989644;28;20176;-66
2021/07/28 08:27:01;;;;;;;11.63;10.47;;;18.20;99.90;;;;;;4988783;28;20579;-65
2021/07/28 08:29:27;;;;;;;8.73;7.90;;;18.20;99.90;;;;;;4989195;28;20608;-66
2021/07/28 08:31:52;;;;;;;11.13;10.03;;;18.30;99.90;;;;;;4990170;28;20267;-66
2021/07/28 08:34:18;;;;;;;9.10;8.30;;;18.20;99.90;;;;;;4989426;28;20200;-66
2021/07/28 08:36:43;;;;;;;10.23;9.23;;;18.20;99.90;;;;;;4989341;28;20653;-66
2021/07/28 08:39:10;;;;;;;9.40;8.50;;;18.30;99.90;;;;;;4988832;28;20701;-67
2021/07/28 08:41:41;;;;;;;10.73;9.73;;;18.20;99.90;;;;;;4987616;28;20184;-67
2021/07/28 08:44:06;;;;;;;9.43;8.63;;;18.40;99.90;;;;;;4989630;28;20423;-67
2021/07/28 08:46:33;;;;;;;10.47;9.57;;;18.50;99.90;;;;;;4989417;28;20882;-67
2021/07/28 08:48:58;;;;;;;9.27;8.57;;;18.80;99.90;;;;;;4989098;28;20175;-67
2021/07/28 08:51:27;;;;;;;8.80;8.00;;;19.00;99.90;;;;;;4989106;28;20445;-67
2021/07/28 08:53:53;;;;;;;7.90;7.10;;;19.00;99.90;;;;;;4989505;28;20286;-67
2021/07/28 08:56:22;;;;;;;9.90;8.90;;;19.00;99.90;;;;;;4989378;28;20550;-66
2021/07/28 08:58:47;;;;;;;8.90;8.20;;;19.10;99.90;;;;;;4989110;28;20476;-67
2021/07/28 09:01:13;;;;;;;8.70;8.00;;;19.10;99.90;;;;;;4994466;28;20435;-67
2021/07/28 09:03:40;;;;;;;8.93;8.10;;;19.30;99.90;;;;;;4989469;28;20175;-66
2021/07/28 09:06:05;;;;;;;10.40;8.77;;;19.20;99.90;;;;;;4988975;28;20207;-68
2021/07/28 09:08:35;;;;;;;7.40;6.70;;;19.30;99.90;;;;;;4988902;28;20476;-66
2021/07/28 09:11:05;;;;;;;8.13;7.43;;;19.40;99.90;;;;;;4988950;28;20245;-67
2021/07/28 09:13:39;;;;;;;10.03;7.60;;;19.50;99.90;;;;;;4989222;28;20511;-67
2021/07/28 09:16:06;;;;;;;8.77;7.97;;;19.70;99.90;;;;;;4989251;28;20992;-67
2021/07/28 09:18:42;;;;;;;7.90;7.20;;;19.90;99.90;;;;;;4988524;28;20461;-66
2021/07/28 09:21:29;;;;;;;7.80;7.20;;;20.10;99.90;;;;;;4988875;28;20437;-66
2021/07/28 09:24:11;;;;;;;8.07;6.93;;;20.20;99.90;;;;;;4989116;28;20457;-67
2021/07/28 09:29:15;;;;;;;7.67;6.87;;;20.50;99.90;;;;;;4988637;28;20932;-67
2021/07/28 09:31:43;;;;;;;7.80;7.10;;;20.50;99.90;;;;;;4988915;28;20473;-66
2021/07/28 09:34:29;;;;;;;8.33;7.00;;;20.40;99.90;;;;;;4988815;28;20454;-66
2021/07/28 09:36:58;;;;;;;9.80;8.80;;;20.40;99.90;;;;;;4988964;28;21006;-66
2021/07/28 09:39:32;;;;;;;7.90;7.10;;;20.40;99.90;;;;;;4988626;28;20465;-67
2021/07/28 09:42:00;;;;;;;6.90;6.27;;;20.60;99.90;;;;;;4988911;28;21306;-66
2021/07/28 09:44:31;;;;;;;6.90;6.40;;;20.50;99.90;;;;;;4989011;28;20481;-66
2021/07/28 09:47:19;;;;;;;7.10;6.40;;;20.50;99.90;;;;;;4988877;28;20492;-66
2021/07/28 09:49:49;;;;;;;7.43;6.73;;;20.60;99.90;;;;;;4988590;28;20512;-66
2021/07/28 09:52:19;;;;;;;7.40;6.70;;;20.60;99.90;;;;;;4988318;28;21166;-66
2021/07/28 09:54:50;;;;;;;7.80;7.03;;;20.30;99.90;;;;;;4989171;28;20569;-67
2021/07/28 09:57:20;;;;;;;6.77;6.10;;;20.60;99.90;;;;;;4988651;28;20434;-64
2021/07/28 09:59:50;;;;;;;6.90;6.30;;;20.90;99.90;;;;;;4993270;28;20523;-64
2021/07/28 10:02:17;;;;;;;7.30;6.40;;;21.30;99.90;;;;;;4988668;28;20807;-66
2021/07/28 10:04:48;;;;;;;7.47;6.33;;;21.80;99.90;;;;;;5001166;28;20519;-64
2021/07/28 10:07:20;;;;;;;6.30;5.80;;;22.20;99.90;;;;;;4994116;28;20546;-64
2021/07/28 10:09:50;;;;;;;9.60;6.97;;;22.10;99.90;;;;;;4991848;28;20840;-65
2021/07/28 10:12:17;;;;;;;7.00;6.23;;;21.90;99.90;;;;;;4994308;28;20427;-64
2021/07/28 10:14:43;;;;;;;11.00;7.60;;;22.00;99.90;;;;;;4991849;28;20466;-64
2021/07/28 10:17:12;;;;;;;9.50;7.37;;;22.10;99.90;;;;;;4991763;28;20556;-65
2021/07/28 10:19:38;;;;;;;6.73;6.13;;;22.00;99.90;;;;;;4991933;28;20576;-65
2021/07/28 10:22:05;;;;;;;10.40;5.90;;;22.20;99.90;;;;;;4991812;28;20449;-65
2021/07/28 10:24:31;;;;;;;6.60;6.10;;;22.30;99.90;;;;;;4990538;28;20423;-65
2021/07/28 10:27:00;;;;;;;5.43;4.93;;;22.50;99.90;;;;;;4991488;28;20469;-65
2021/07/28 10:29:26;;;;;;;6.20;5.60;;;22.40;99.90;;;;;;4983037;28;20882;-66
2021/07/28 10:31:53;;;;;;;6.83;6.23;;;22.20;99.90;;;;;;4992937;28;20429;-65
2021/07/28 10:34:43;;;;;;;6.60;6.00;;;22.30;99.90;;;;;;4991441;28;20295;-65
2021/07/28 10:37:09;;;;;;;5.80;5.30;;;22.20;99.90;;;;;;4981696;28;20458;-64
2021/07/28 10:39:52;;;;;;;6.60;5.90;;;22.30;99.90;;;;;;4991838;28;20419;-64
2021/07/28 10:42:30;;;;;;;8.43;7.10;;;22.10;99.90;;;;;;5000097;28;20172;-64
2021/07/28 10:45:12;;;;;;;7.03;5.97;;;21.80;99.90;;;;;;4998944;28;20438;-65
2021/07/28 10:47:42;;;;;;;7.17;6.03;;;22.00;99.90;;;;;;5002345;28;20468;-65
2021/07/28 10:50:26;;;;;;;6.63;6.03;;;22.10;99.90;;;;;;5002442;28;20430;-64
2021/07/28 10:52:58;;;;;;;6.50;6.00;;;22.50;99.90;;;;;;5000507;28;20452;-64
2021/07/28 10:55:25;;;;;;;6.20;5.63;;;23.60;99.90;;;;;;5010990;28;20552;-65
2021/07/28 10:57:54;;;;;;;8.13;6.47;;;24.50;99.90;;;;;;5008595;28;20448;-65
2021/07/28 11:00:38;;;;;;;6.27;5.77;;;25.20;99.90;;;;;;5004872;28;20426;-65
2021/07/28 11:03:12;;;;;;;6.73;5.97;;;25.50;99.90;;;;;;4991077;28;20430;-64
2021/07/28 11:05:40;;;;;;;6.77;6.27;;;24.80;99.90;;;;;;4986647;28;21002;-64
2021/07/28 11:08:05;;;;;;;10.93;6.73;;;23.90;99.90;;;;;;4988177;28;20875;-65
2021/07/28 11:10:38;;;;;;;7.30;6.60;;;23.50;99.90;;;;;;4987740;28;20517;-64
2021/07/28 11:13:10;;;;;;;7.33;5.70;;;23.40;99.90;;;;;;4991037;28;20197;-64
2021/07/28 11:15:37;;;;;;;7.40;5.97;;;23.60;99.90;;;;;;4991017;28;20573;-65
2021/07/28 11:18:03;;;;;;;5.27;4.80;;;23.80;99.90;;;;;;4991051;28;20480;-65
2021/07/28 11:20:33;;;;;;;6.07;5.60;;;25.70;99.90;;;;;;4990729;28;20423;-65
2021/07/28 11:23:24;;;;;;;6.63;5.80;;;27.50;99.90;;;;;;4990637;28;20430;-65
2021/07/28 11:25:50;;;;;;;6.27;5.77;;;28.90;99.90;;;;;;4990981;28;20509;-66
2021/07/28 11:28:18;;;;;;;6.07;5.60;;;29.50;99.90;;;;;;4990792;28;20513;-66
2021/07/28 11:30:46;;;;;;;6.73;6.13;;;28.70;99.70;;;;;;4990752;28;20475;-65
2021/07/28 11:33:16;;;;;;;6.27;5.77;;;28.50;99.90;;;;;;4990440;28;20422;-65
2021/07/28 11:35:46;;;;;;;5.73;5.33;;;29.30;99.50;;;;;;4990385;28;20463;-65
2021/07/28 11:38:19;;;;;;;7.37;6.77;;;29.80;98.10;;;;;;4972774;28;20977;-65
2021/07/28 11:40:59;;;;;;;5.73;5.07;;;30.30;96.90;;;;;;4989975;28;20789;-65
2021/07/28 11:43:32;;;;;;;5.97;5.57;;;32.40;94.80;;;;;;4990391;28;20426;-65
2021/07/28 11:46:00;;;;;;;5.40;5.00;;;32.30;91.20;;;;;;4989878;28;20454;-66
2021/07/28 11:48:44;;;;;;;5.23;4.83;;;31.80;90.20;;;;;;4990133;28;20504;-65
2021/07/28 11:51:16;;;;;;;6.20;5.70;;;31.50;88.90;;;;;;4990455;28;20541;-66
2021/07/28 11:53:42;;;;;;;5.80;5.40;;;31.80;89.00;;;;;;4990530;28;20533;-65
2021/07/28 11:56:15;;;;;;;6.93;5.50;;;32.80;85.70;;;;;;4989968;28;20526;-64
2021/07/28 11:58:43;;;;;;;5.60;5.20;;;33.50;80.20;;;;;;4990530;28;20251;-65
2021/07/28 12:01:48;;;;;;;5.23;4.90;;;33.20;80.60;;;;;;4996878;28;20418;-64
2021/07/28 12:04:21;;;;;;;5.60;5.20;;;32.80;81.60;;;;;;4987353;28;20533;-65
2021/07/28 12:06:47;;;;;;;6.10;5.70;;;32.30;80.10;;;;;;4989691;28;20550;-65
2021/07/28 12:09:24;;;;;;;6.10;5.57;;;31.20;82.50;;;;;;4989702;28;20419;-65
2021/07/28 12:12:03;;;;;;;5.37;4.90;;;30.50;86.00;;;;;;4989563;28;20429;-65
2021/07/28 12:14:30;;;;;;;5.70;5.30;;;30.30;84.40;;;;;;4989662;28;20501;-65
2021/07/28 12:17:07;;;;;;;5.77;5.27;;;30.70;84.90;;;;;;4990208;28;20473;-65
2021/07/28 12:19:40;;;;;;;6.63;6.10;;;30.80;83.50;;;;;;4989439;28;20427;-65
2021/07/28 12:22:11;;;;;;;5.70;5.30;;;30.90;83.00;;;;;;4989478;28;20932;-65
2021/07/28 12:24:41;;;;;;;6.27;5.50;;;29.50;84.60;;;;;;4989944;28;20857;-66
2021/07/28 12:27:30;;;;;;;6.20;5.70;;;30.40;85.60;;;;;;4987725;28;20829;-65
2021/07/28 12:30:20;;;;;;;5.13;4.73;;;28.30;89.00;;;;;;4961018;28;20461;-64
2021/07/28 12:32:59;;;;;;;5.00;4.60;;;26.80;91.80;;;;;;4989703;28;20450;-64
2021/07/28 12:35:32;;;;;;;5.80;5.30;;;26.70;92.20;;;;;;4989877;28;20912;-65
2021/07/28 12:38:20;;;;;;;6.60;5.47;;;28.30;91.50;;;;;;4989210;28;20514;-65
2021/07/28 12:41:03;;;;;;;5.87;5.33;;;31.10;85.40;;;;;;4988730;28;20434;-65
2021/07/28 12:43:30;;;;;;;5.90;5.50;;;30.20;84.40;;;;;;4989693;28;20423;-64
2021/07/28 12:46:00;;;;;;;6.00;5.50;;;30.20;86.20;;;;;;4989491;28;20528;-65
2021/07/28 12:48:27;;;;;;;5.67;5.27;;;30.10;85.00;;;;;;4989054;28;21017;-65
2021/07/28 12:50:54;;;;;;;4.77;4.37;;;29.50;85.20;;;;;;4989426;28;20426;-64
2021/07/28 12:53:20;;;;;;;5.20;4.70;;;29.20;83.80;;;;;;4987640;28;20459;-64
2021/07/28 12:55:45;;;;;;;5.00;4.60;;;28.80;86.20;;;;;;4985139;28;20502;-65